sensor_id;sensor_type;location;lat;lon;timestamp;pressure;altitude;pressure_sealevel;temperature;humidity
11345;BME280;5727;42.600;23.028;2023-02-04T00:00:11;93473.81;;;3.40;76.71
11345;BME280;5727;42.600;23.028;2023-02-04T00:02:38;93461.44;;;3.37;77.51
11345;BME280;5727;42.600;23.028;2023-02-04T00:05:06;93469.88;;;3.29;76.73
11345;BME280;5727;42.600;23.028;2023-02-04T00:07:34;93465.81;;;3.23;77.04
11345;BME280;5727;42.600;23.028;2023-02-04T00:10:01;93460.28;;;3.30;77.31
11345;BME280;5727;42.600;23.028;2023-02-04T00:12:28;93465.66;;;3.33;76.84
11345;BME280;5727;42.600;23.028;2023-02-04T00:14:55;93457.03;;;3.24;77.53
11345;BME280;5727;42.600;23.028;2023-02-04T00:17:21;93465.25;;;3.13;77.57
11345;BME280;5727;42.600;23.028;2023-02-04T00:19:48;93459.56;;;3.11;79.69
11345;BME280;5727;42.600;23.028;2023-02-04T00:22:15;93464.84;;;3.19;80.17
11345;BME280;5727;42.600;23.028;2023-02-04T00:24:43;93461.94;;;2.94;83.92
11345;BME280;5727;42.600;23.028;2023-02-04T00:27:14;93461.56;;;2.68;86.76
11345;BME280;5727;42.600;23.028;2023-02-04T00:29:41;93460.09;;;2.62;89.10
11345;BME280;5727;42.600;23.028;2023-02-04T00:32:08;93450.09;;;2.74;89.87
11345;BME280;5727;42.600;23.028;2023-02-04T00:34:35;93451.47;;;2.85;89.65
11345;BME280;5727;42.600;23.028;2023-02-04T00:37:01;93449.19;;;2.97;88.78
11345;BME280;5727;42.600;23.028;2023-02-04T00:39:28;93444.50;;;2.99;89.16
11345;BME280;5727;42.600;23.028;2023-02-04T00:41:56;93442.56;;;2.91;89.51
11345;BME280;5727;42.600;23.028;2023-02-04T00:44:23;93441.00;;;2.90;90.03
11345;BME280;5727;42.600;23.028;2023-02-04T00:46:50;93439.63;;;2.98;88.78
11345;BME280;5727;42.600;23.028;2023-02-04T00:49:17;93440.84;;;3.00;88.25
11345;BME280;5727;42.600;23.028;2023-02-04T00:51:43;93435.03;;;3.08;88.37
11345;BME280;5727;42.600;23.028;2023-02-04T00:54:11;93447.88;;;3.13;88.09
11345;BME280;5727;42.600;23.028;2023-02-04T00:56:40;93439.44;;;3.08;87.66
11345;BME280;5727;42.600;23.028;2023-02-04T00:59:08;93434.38;;;3.16;87.71
11345;BME280;5727;42.600;23.028;2023-02-04T01:01:35;93440.31;;;3.17;87.33
11345;BME280;5727;42.600;23.028;2023-02-04T01:04:02;93435.16;;;3.17;87.54
11345;BME280;5727;42.600;23.028;2023-02-04T01:06:29;93431.63;;;3.26;87.65
11345;BME280;5727;42.600;23.028;2023-02-04T01:08:56;93428.72;;;3.14;88.62
11345;BME280;5727;42.600;23.028;2023-02-04T01:11:22;93428.03;;;3.09;89.46
11345;BME280;5727;42.600;23.028;2023-02-04T01:13:49;93418.66;;;3.13;90.24
11345;BME280;5727;42.600;23.028;2023-02-04T01:16:17;93422.28;;;3.12;91.31
11345;BME280;5727;42.600;23.028;2023-02-04T01:18:44;93414.22;;;3.13;92.49
11345;BME280;5727;42.600;23.028;2023-02-04T01:21:11;93406.66;;;3.03;93.75
11345;BME280;5727;42.600;23.028;2023-02-04T01:23:37;93411.72;;;3.08;94.71
11345;BME280;5727;42.600;23.028;2023-02-04T01:26:04;93397.63;;;3.01;96.14
11345;BME280;5727;42.600;23.028;2023-02-04T01:28:31;93390.56;;;3.20;95.39
11345;BME280;5727;42.600;23.028;2023-02-04T01:30:58;93386.34;;;3.10;96.15
11345;BME280;5727;42.600;23.028;2023-02-04T01:33:26;93385.66;;;3.05;97.10
11345;BME280;5727;42.600;23.028;2023-02-04T01:35:53;93385.75;;;3.13;96.60
11345;BME280;5727;42.600;23.028;2023-02-04T01:38:20;93379.22;;;3.02;97.45
11345;BME280;5727;42.600;23.028;2023-02-04T01:40:47;93371.97;;;3.18;96.83
11345;BME280;5727;42.600;23.028;2023-02-04T01:43:13;93388.75;;;3.20;96.21
11345;BME280;5727;42.600;23.028;2023-02-04T01:45:42;93373.06;;;2.85;98.79
11345;BME280;5727;42.600;23.028;2023-02-04T01:48:08;93380.47;;;2.91;99.96
11345;BME280;5727;42.600;23.028;2023-02-04T01:50:38;93384.41;;;3.02;98.79
11345;BME280;5727;42.600;23.028;2023-02-04T01:53:05;93375.69;;;2.98;97.91
11345;BME280;5727;42.600;23.028;2023-02-04T01:55:32;93361.78;;;3.08;97.90
11345;BME280;5727;42.600;23.028;2023-02-04T01:57:58;93355.47;;;3.14;97.28
11345;BME280;5727;42.600;23.028;2023-02-04T02:00:28;93357.56;;;3.12;95.22
11345;BME280;5727;42.600;23.028;2023-02-04T02:02:55;93353.06;;;3.17;95.31
11345;BME280;5727;42.600;23.028;2023-02-04T02:05:25;93350.00;;;3.15;95.07
11345;BME280;5727;42.600;23.028;2023-02-04T02:07:56;93347.53;;;3.24;93.75
11345;BME280;5727;42.600;23.028;2023-02-04T02:10:24;93345.59;;;3.29;93.67
11345;BME280;5727;42.600;23.028;2023-02-04T02:12:52;93348.47;;;3.28;94.26
11345;BME280;5727;42.600;23.028;2023-02-04T02:15:19;93339.94;;;3.27;93.42
11345;BME280;5727;42.600;23.028;2023-02-04T02:17:46;93324.78;;;3.34;93.27
11345;BME280;5727;42.600;23.028;2023-02-04T02:20:16;93317.59;;;3.31;92.86
11345;BME280;5727;42.600;23.028;2023-02-04T02:22:50;93315.78;;;3.18;93.63
11345;BME280;5727;42.600;23.028;2023-02-04T02:25:19;93313.97;;;3.05;95.57
11345;BME280;5727;42.600;23.028;2023-02-04T02:27:46;93315.13;;;3.13;94.58
11345;BME280;5727;42.600;23.028;2023-02-04T02:30:14;93302.66;;;3.15;95.28
11345;BME280;5727;42.600;23.028;2023-02-04T02:32:42;93293.47;;;2.95;97.69
11345;BME280;5727;42.600;23.028;2023-02-04T02:35:09;93293.16;;;2.83;100.00
11345;BME280;5727;42.600;23.028;2023-02-04T02:37:36;93302.47;;;2.70;100.00
11345;BME280;5727;42.600;23.028;2023-02-04T02:40:04;93286.94;;;2.57;100.00
11345;BME280;5727;42.600;23.028;2023-02-04T02:42:32;93282.16;;;2.64;100.00
11345;BME280;5727;42.600;23.028;2023-02-04T02:45:01;93286.00;;;2.80;100.00
11345;BME280;5727;42.600;23.028;2023-02-04T02:47:29;93280.91;;;2.75;100.00
11345;BME280;5727;42.600;23.028;2023-02-04T02:50:04;93287.53;;;2.95;100.00
11345;BME280;5727;42.600;23.028;2023-02-04T02:52:32;93275.06;;;2.97;100.00
11345;BME280;5727;42.600;23.028;2023-02-04T02:54:58;93272.28;;;3.07;100.00
11345;BME280;5727;42.600;23.028;2023-02-04T02:57:25;93274.88;;;2.93;100.00
11345;BME280;5727;42.600;23.028;2023-02-04T02:59:53;93261.56;;;2.86;100.00
11345;BME280;5727;42.600;23.028;2023-02-04T03:02:22;93245.75;;;2.74;100.00
11345;BME280;5727;42.600;23.028;2023-02-04T03:04:53;93238.75;;;2.61;100.00
11345;BME280;5727;42.600;23.028;2023-02-04T03:07:21;93233.31;;;2.62;100.00
11345;BME280;5727;42.600;23.028;2023-02-04T03:09:48;93231.00;;;2.47;100.00
11345;BME280;5727;42.600;23.028;2023-02-04T03:12:17;93236.84;;;2.53;100.00
11345;BME280;5727;42.600;23.028;2023-02-04T03:14:43;93235.03;;;2.53;100.00
11345;BME280;5727;42.600;23.028;2023-02-04T03:17:12;93227.94;;;2.72;100.00
11345;BME280;5727;42.600;23.028;2023-02-04T03:19:39;93226.09;;;2.87;100.00
11345;BME280;5727;42.600;23.028;2023-02-04T03:22:06;93221.38;;;3.02;100.00
11345;BME280;5727;42.600;23.028;2023-02-04T03:24:34;93218.91;;;2.97;100.00
11345;BME280;5727;42.600;23.028;2023-02-04T03:27:01;93222.75;;;3.00;100.00
11345;BME280;5727;42.600;23.028;2023-02-04T03:29:28;93239.78;;;3.14;100.00
11345;BME280;5727;42.600;23.028;2023-02-04T03:31:55;93241.09;;;3.25;100.00
11345;BME280;5727;42.600;23.028;2023-02-04T03:34:25;93243.59;;;3.30;100.00
11345;BME280;5727;42.600;23.028;2023-02-04T03:36:52;93238.59;;;3.34;100.00
11345;BME280;5727;42.600;23.028;2023-02-04T03:39:19;93243.47;;;3.35;100.00
11345;BME280;5727;42.600;23.028;2023-02-04T03:41:45;93240.28;;;3.38;100.00
11345;BME280;5727;42.600;23.028;2023-02-04T03:44:12;93242.03;;;3.29;100.00
11345;BME280;5727;42.600;23.028;2023-02-04T03:46:39;93233.81;;;3.27;100.00
11345;BME280;5727;42.600;23.028;2023-02-04T03:49:06;93227.06;;;3.40;100.00
11345;BME280;5727;42.600;23.028;2023-02-04T03:51:34;93225.13;;;3.45;100.00
11345;BME280;5727;42.600;23.028;2023-02-04T03:54:00;93221.38;;;3.51;100.00
11345;BME280;5727;42.600;23.028;2023-02-04T03:56:28;93213.63;;;3.51;100.00
11345;BME280;5727;42.600;23.028;2023-02-04T03:58:55;93207.22;;;3.57;100.00
11345;BME280;5727;42.600;23.028;2023-02-04T04:01:21;93203.94;;;3.65;100.00
11345;BME280;5727;42.600;23.028;2023-02-04T04:03:48;93210.31;;;3.59;100.00
11345;BME280;5727;42.600;23.028;2023-02-04T04:06:15;93215.47;;;3.59;100.00
11345;BME280;5727;42.600;23.028;2023-02-04T04:08:43;93198.25;;;3.55;100.00
11345;BME280;5727;42.600;23.028;2023-02-04T04:11:09;93199.59;;;3.52;100.00
11345;BME280;5727;42.600;23.028;2023-02-04T04:13:36;93199.75;;;3.56;100.00
11345;BME280;5727;42.600;23.028;2023-02-04T04:16:03;93197.47;;;3.54;100.00
11345;BME280;5727;42.600;23.028;2023-02-04T04:18:30;93200.19;;;3.49;100.00
11345;BME280;5727;42.600;23.028;2023-02-04T04:20:58;93190.06;;;3.39;100.00
11345;BME280;5727;42.600;23.028;2023-02-04T04:23:24;93183.97;;;3.44;100.00
11345;BME280;5727;42.600;23.028;2023-02-04T04:25:52;93183.81;;;3.40;100.00
11345;BME280;5727;42.600;23.028;2023-02-04T04:28:19;93186.00;;;3.47;100.00
11345;BME280;5727;42.600;23.028;2023-02-04T04:30:46;93195.97;;;3.53;100.00
11345;BME280;5727;42.600;23.028;2023-02-04T04:33:12;93185.59;;;3.53;100.00
11345;BME280;5727;42.600;23.028;2023-02-04T04:35:39;93188.63;;;3.55;100.00
11345;BME280;5727;42.600;23.028;2023-02-04T04:38:06;93187.75;;;3.60;100.00
11345;BME280;5727;42.600;23.028;2023-02-04T04:40:33;93190.34;;;3.60;100.00
11345;BME280;5727;42.600;23.028;2023-02-04T04:43:01;93199.75;;;3.56;100.00
11345;BME280;5727;42.600;23.028;2023-02-04T04:45:28;93198.47;;;3.45;100.00
11345;BME280;5727;42.600;23.028;2023-02-04T04:47:54;93197.31;;;3.51;100.00
11345;BME280;5727;42.600;23.028;2023-02-04T04:50:21;93206.13;;;3.50;100.00
11345;BME280;5727;42.600;23.028;2023-02-04T04:52:48;93206.75;;;3.55;100.00
11345;BME280;5727;42.600;23.028;2023-02-04T04:55:15;93207.28;;;3.44;100.00
11345;BME280;5727;42.600;23.028;2023-02-04T04:57:41;93217.09;;;3.33;100.00
11345;BME280;5727;42.600;23.028;2023-02-04T05:00:14;93217.84;;;2.98;100.00
11345;BME280;5727;42.600;23.028;2023-02-04T05:02:41;93219.09;;;3.01;100.00
11345;BME280;5727;42.600;23.028;2023-02-04T05:05:09;93229.25;;;2.97;100.00
11345;BME280;5727;42.600;23.028;2023-02-04T05:07:35;93226.47;;;3.07;100.00
11345;BME280;5727;42.600;23.028;2023-02-04T05:10:03;93230.94;;;3.15;100.00
11345;BME280;5727;42.600;23.028;2023-02-04T05:12:30;93242.44;;;3.23;100.00
11345;BME280;5727;42.600;23.028;2023-02-04T05:14:57;93232.75;;;3.28;100.00
11345;BME280;5727;42.600;23.028;2023-02-04T05:17:25;93221.50;;;3.33;100.00
11345;BME280;5727;42.600;23.028;2023-02-04T05:19:52;93231.22;;;3.27;100.00
11345;BME280;5727;42.600;23.028;2023-02-04T05:22:19;93238.97;;;3.27;100.00
11345;BME280;5727;42.600;23.028;2023-02-04T05:24:45;93238.63;;;3.20;100.00
11345;BME280;5727;42.600;23.028;2023-02-04T05:27:12;93230.19;;;3.15;100.00
11345;BME280;5727;42.600;23.028;2023-02-04T05:29:39;93225.69;;;3.20;100.00
11345;BME280;5727;42.600;23.028;2023-02-04T05:32:06;93239.00;;;3.14;100.00
11345;BME280;5727;42.600;23.028;2023-02-04T05:34:34;93238.06;;;3.10;100.00
11345;BME280;5727;42.600;23.028;2023-02-04T05:37:01;93242.38;;;3.14;100.00
11345;BME280;5727;42.600;23.028;2023-02-04T05:39:27;93248.97;;;3.20;100.00
11345;BME280;5727;42.600;23.028;2023-02-04T05:41:54;93252.53;;;3.24;100.00
11345;BME280;5727;42.600;23.028;2023-02-04T05:44:21;93252.34;;;3.07;100.00
11345;BME280;5727;42.600;23.028;2023-02-04T05:46:47;93246.31;;;2.98;100.00
11345;BME280;5727;42.600;23.028;2023-02-04T05:49:14;93254.28;;;2.88;100.00
11345;BME280;5727;42.600;23.028;2023-02-04T05:51:42;93242.38;;;2.87;100.00
11345;BME280;5727;42.600;23.028;2023-02-04T05:54:09;93247.88;;;2.86;100.00
11345;BME280;5727;42.600;23.028;2023-02-04T05:56:36;93256.88;;;2.74;100.00
11345;BME280;5727;42.600;23.028;2023-02-04T05:59:02;93266.16;;;2.75;100.00
11345;BME280;5727;42.600;23.028;2023-02-04T06:01:29;93267.22;;;2.74;100.00
11345;BME280;5727;42.600;23.028;2023-02-04T06:03:56;93275.25;;;2.73;100.00
11345;BME280;5727;42.600;23.028;2023-02-04T06:06:22;93269.88;;;2.83;100.00
11345;BME280;5727;42.600;23.028;2023-02-04T06:08:51;93265.78;;;2.96;100.00
11345;BME280;5727;42.600;23.028;2023-02-04T06:11:17;93265.84;;;3.04;100.00
11345;BME280;5727;42.600;23.028;2023-02-04T06:13:44;93271.63;;;3.01;100.00
11345;BME280;5727;42.600;23.028;2023-02-04T06:16:11;93262.59;;;3.12;100.00
11345;BME280;5727;42.600;23.028;2023-02-04T06:18:37;93258.72;;;3.23;100.00
11345;BME280;5727;42.600;23.028;2023-02-04T06:21:04;93252.75;;;3.36;100.00
11345;BME280;5727;42.600;23.028;2023-02-04T06:23:31;93244.47;;;3.48;100.00
11345;BME280;5727;42.600;23.028;2023-02-04T06:26:00;93241.50;;;3.54;100.00
11345;BME280;5727;42.600;23.028;2023-02-04T06:28:27;93245.22;;;3.62;100.00
11345;BME280;5727;42.600;23.028;2023-02-04T06:30:53;93255.44;;;3.45;100.00
11345;BME280;5727;42.600;23.028;2023-02-04T06:33:20;93253.69;;;3.54;100.00
11345;BME280;5727;42.600;23.028;2023-02-04T06:35:48;93253.88;;;3.44;100.00
11345;BME280;5727;42.600;23.028;2023-02-04T06:38:15;93255.34;;;3.36;100.00
11345;BME280;5727;42.600;23.028;2023-02-04T06:40:42;93257.59;;;3.16;100.00
11345;BME280;5727;42.600;23.028;2023-02-04T06:43:10;93259.81;;;3.22;100.00
11345;BME280;5727;42.600;23.028;2023-02-04T06:45:36;93258.75;;;3.10;100.00
11345;BME280;5727;42.600;23.028;2023-02-04T06:48:03;93262.00;;;3.02;100.00
11345;BME280;5727;42.600;23.028;2023-02-04T06:50:30;93249.84;;;3.02;100.00
11345;BME280;5727;42.600;23.028;2023-02-04T06:52:57;93251.00;;;3.10;100.00
11345;BME280;5727;42.600;23.028;2023-02-04T06:55:24;93252.25;;;3.12;100.00
11345;BME280;5727;42.600;23.028;2023-02-04T06:57:50;93250.13;;;3.14;100.00
11345;BME280;5727;42.600;23.028;2023-02-04T07:00:19;93250.31;;;3.18;100.00
11345;BME280;5727;42.600;23.028;2023-02-04T07:02:46;93249.34;;;3.27;100.00
11345;BME280;5727;42.600;23.028;2023-02-04T07:05:12;93252.56;;;3.33;100.00
11345;BME280;5727;42.600;23.028;2023-02-04T07:07:39;93244.31;;;3.44;100.00
11345;BME280;5727;42.600;23.028;2023-02-04T07:10:06;93243.03;;;3.55;100.00
11345;BME280;5727;42.600;23.028;2023-02-04T07:12:33;93238.44;;;3.52;100.00
11345;BME280;5727;42.600;23.028;2023-02-04T07:14:59;93242.91;;;3.60;100.00
11345;BME280;5727;42.600;23.028;2023-02-04T07:17:28;93237.22;;;3.36;100.00
11345;BME280;5727;42.600;23.028;2023-02-04T07:19:54;93228.97;;;3.34;100.00
11345;BME280;5727;42.600;23.028;2023-02-04T07:22:21;93217.28;;;3.37;100.00
11345;BME280;5727;42.600;23.028;2023-02-04T07:24:48;93220.31;;;3.52;100.00
11345;BME280;5727;42.600;23.028;2023-02-04T07:27:14;93214.84;;;3.54;100.00
11345;BME280;5727;42.600;23.028;2023-02-04T07:29:41;93219.44;;;3.79;100.00
11345;BME280;5727;42.600;23.028;2023-02-04T07:32:08;93225.97;;;3.99;100.00
11345;BME280;5727;42.600;23.028;2023-02-04T07:34:36;93234.72;;;4.11;100.00
11345;BME280;5727;42.600;23.028;2023-02-04T07:37:02;93227.16;;;4.15;100.00
11345;BME280;5727;42.600;23.028;2023-02-04T07:39:29;93244.31;;;4.33;100.00
11345;BME280;5727;42.600;23.028;2023-02-04T07:41:56;93240.44;;;4.52;100.00
11345;BME280;5727;42.600;23.028;2023-02-04T07:44:22;93237.13;;;4.69;100.00
11345;BME280;5727;42.600;23.028;2023-02-04T07:46:49;93249.16;;;4.56;97.60
11345;BME280;5727;42.600;23.028;2023-02-04T07:49:16;93245.22;;;4.59;97.94
11345;BME280;5727;42.600;23.028;2023-02-04T07:51:44;93243.88;;;4.70;98.81
11345;BME280;5727;42.600;23.028;2023-02-04T07:54:11;93249.13;;;4.87;98.02
11345;BME280;5727;42.600;23.028;2023-02-04T07:56:37;93246.09;;;5.02;97.78
11345;BME280;5727;42.600;23.028;2023-02-04T07:59:04;93250.56;;;5.10;96.90
11345;BME280;5727;42.600;23.028;2023-02-04T08:01:31;93244.88;;;4.91;95.79
11345;BME280;5727;42.600;23.028;2023-02-04T08:03:58;93251.59;;;4.61;96.30
11345;BME280;5727;42.600;23.028;2023-02-04T08:06:25;93244.06;;;4.43;97.82
11345;BME280;5727;42.600;23.028;2023-02-04T08:08:53;93245.75;;;4.47;98.07
11345;BME280;5727;42.600;23.028;2023-02-04T08:11:20;93236.97;;;4.65;98.12
11345;BME280;5727;42.600;23.028;2023-02-04T08:13:47;93242.25;;;4.52;98.80
11345;BME280;5727;42.600;23.028;2023-02-04T08:16:13;93244.78;;;4.35;99.61
11345;BME280;5727;42.600;23.028;2023-02-04T08:18:40;93239.75;;;4.38;100.00
11345;BME280;5727;42.600;23.028;2023-02-04T08:21:07;93242.09;;;4.48;100.00
11345;BME280;5727;42.600;23.028;2023-02-04T08:23:33;93238.34;;;4.63;98.46
11345;BME280;5727;42.600;23.028;2023-02-04T08:26:07;93230.63;;;4.80;97.11
11345;BME280;5727;42.600;23.028;2023-02-04T08:28:37;93237.84;;;4.92;97.28
11345;BME280;5727;42.600;23.028;2023-02-04T08:31:04;93235.41;;;5.04;96.46
11345;BME280;5727;42.600;23.028;2023-02-04T08:33:31;93233.91;;;5.11;96.17
11345;BME280;5727;42.600;23.028;2023-02-04T08:35:58;93233.31;;;5.23;95.47
11345;BME280;5727;42.600;23.028;2023-02-04T08:38:24;93231.66;;;5.35;95.47
11345;BME280;5727;42.600;23.028;2023-02-04T08:40:51;93231.06;;;5.47;94.42
11345;BME280;5727;42.600;23.028;2023-02-04T08:43:19;93228.59;;;5.59;94.00
11345;BME280;5727;42.600;23.028;2023-02-04T08:45:46;93229.09;;;5.70;93.67
11345;BME280;5727;42.600;23.028;2023-02-04T08:48:13;93231.97;;;5.77;93.55
11345;BME280;5727;42.600;23.028;2023-02-04T08:50:39;93233.84;;;5.85;92.41
11345;BME280;5727;42.600;23.028;2023-02-04T08:53:06;93232.94;;;5.89;91.78
11345;BME280;5727;42.600;23.028;2023-02-04T08:55:33;93229.84;;;5.96;90.59
11345;BME280;5727;42.600;23.028;2023-02-04T08:57:59;93234.00;;;5.97;89.90
11345;BME280;5727;42.600;23.028;2023-02-04T09:00:28;93232.31;;;6.01;89.69
11345;BME280;5727;42.600;23.028;2023-02-04T09:02:55;93229.72;;;6.01;88.59
11345;BME280;5727;42.600;23.028;2023-02-04T09:05:22;93238.44;;;6.05;88.61
11345;BME280;5727;42.600;23.028;2023-02-04T09:07:48;93235.81;;;6.05;89.29
11345;BME280;5727;42.600;23.028;2023-02-04T09:10:15;93234.16;;;6.09;89.20
11345;BME280;5727;42.600;23.028;2023-02-04T09:12:42;93242.25;;;5.82;89.98
11345;BME280;5727;42.600;23.028;2023-02-04T09:15:09;93239.03;;;5.68;91.29
11345;BME280;5727;42.600;23.028;2023-02-04T09:17:38;93234.84;;;5.15;92.55
11345;BME280;5727;42.600;23.028;2023-02-04T09:20:09;93231.56;;;4.93;95.84
11345;BME280;5727;42.600;23.028;2023-02-04T09:22:35;93220.56;;;4.96;97.99
11345;BME280;5727;42.600;23.028;2023-02-04T09:25:02;93225.97;;;4.99;98.05
11345;BME280;5727;42.600;23.028;2023-02-04T09:27:29;93226.75;;;4.69;100.00
11345;BME280;5727;42.600;23.028;2023-02-04T09:29:56;93229.66;;;4.59;100.00
11345;BME280;5727;42.600;23.028;2023-02-04T09:32:23;93224.34;;;4.42;100.00
11345;BME280;5727;42.600;23.028;2023-02-04T09:34:51;93226.63;;;4.35;100.00
11345;BME280;5727;42.600;23.028;2023-02-04T09:37:18;93227.22;;;4.32;100.00
11345;BME280;5727;42.600;23.028;2023-02-04T09:39:44;93224.81;;;4.44;100.00
11345;BME280;5727;42.600;23.028;2023-02-04T09:42:14;93223.00;;;4.44;100.00
11345;BME280;5727;42.600;23.028;2023-02-04T09:44:41;93220.41;;;4.14;100.00
11345;BME280;5727;42.600;23.028;2023-02-04T09:47:10;93221.63;;;3.86;100.00
11345;BME280;5727;42.600;23.028;2023-02-04T09:49:42;93217.91;;;3.78;100.00
11345;BME280;5727;42.600;23.028;2023-02-04T09:52:12;93205.66;;;3.70;100.00
11345;BME280;5727;42.600;23.028;2023-02-04T09:54:41;93204.53;;;3.62;100.00
11345;BME280;5727;42.600;23.028;2023-02-04T09:57:13;93200.66;;;3.73;100.00
11345;BME280;5727;42.600;23.028;2023-02-04T09:59:41;93197.41;;;3.68;100.00
11345;BME280;5727;42.600;23.028;2023-02-04T10:02:20;93196.41;;;3.55;100.00
11345;BME280;5727;42.600;23.028;2023-02-04T10:04:47;93196.69;;;3.54;100.00
11345;BME280;5727;42.600;23.028;2023-02-04T10:07:17;93188.00;;;3.50;100.00
11345;BME280;5727;42.600;23.028;2023-02-04T10:09:47;93184.69;;;3.36;100.00
11345;BME280;5727;42.600;23.028;2023-02-04T10:12:15;93181.22;;;3.40;100.00
11345;BME280;5727;42.600;23.028;2023-02-04T10:14:42;93186.59;;;3.66;100.00
11345;BME280;5727;42.600;23.028;2023-02-04T10:17:09;93180.47;;;3.84;100.00
11345;BME280;5727;42.600;23.028;2023-02-04T10:19:37;93175.47;;;3.96;100.00
11345;BME280;5727;42.600;23.028;2023-02-04T10:22:10;93176.97;;;3.89;100.00
11345;BME280;5727;42.600;23.028;2023-02-04T10:24:42;93171.41;;;4.04;100.00
11345;BME280;5727;42.600;23.028;2023-02-04T10:27:11;93170.44;;;4.22;100.00
11345;BME280;5727;42.600;23.028;2023-02-04T10:29:41;93173.72;;;4.36;100.00
11345;BME280;5727;42.600;23.028;2023-02-04T10:32:26;93170.50;;;4.39;100.00
11345;BME280;5727;42.600;23.028;2023-02-04T10:34:58;93153.59;;;4.50;100.00
11345;BME280;5727;42.600;23.028;2023-02-04T10:37:25;93162.19;;;4.59;100.00
11345;BME280;5727;42.600;23.028;2023-02-04T10:39:53;93155.19;;;4.68;100.00
11345;BME280;5727;42.600;23.028;2023-02-04T10:42:22;93160.06;;;4.70;100.00
11345;BME280;5727;42.600;23.028;2023-02-04T10:44:49;93152.25;;;4.52;100.00
11345;BME280;5727;42.600;23.028;2023-02-04T10:47:17;93151.50;;;4.60;100.00
11345;BME280;5727;42.600;23.028;2023-02-04T10:49:51;93157.31;;;4.75;100.00
11345;BME280;5727;42.600;23.028;2023-02-04T10:52:21;93147.13;;;4.87;100.00
11345;BME280;5727;42.600;23.028;2023-02-04T10:54:50;93146.22;;;4.91;100.00
11345;BME280;5727;42.600;23.028;2023-02-04T10:57:20;93136.16;;;4.90;100.00
11345;BME280;5727;42.600;23.028;2023-02-04T10:59:50;93135.69;;;4.96;100.00
11345;BME280;5727;42.600;23.028;2023-02-04T11:02:31;93133.25;;;5.00;100.00
11345;BME280;5727;42.600;23.028;2023-02-04T11:04:59;93135.56;;;5.01;100.00
11345;BME280;5727;42.600;23.028;2023-02-04T11:07:26;93126.41;;;5.12;100.00
11345;BME280;5727;42.600;23.028;2023-02-04T11:09:53;93124.56;;;5.13;100.00
11345;BME280;5727;42.600;23.028;2023-02-04T11:12:34;93128.06;;;5.17;100.00
11345;BME280;5727;42.600;23.028;2023-02-04T11:15:03;93123.06;;;5.20;100.00
11345;BME280;5727;42.600;23.028;2023-02-04T11:17:31;93122.28;;;5.20;100.00
11345;BME280;5727;42.600;23.028;2023-02-04T11:19:59;93120.44;;;5.29;100.00
11345;BME280;5727;42.600;23.028;2023-02-04T11:22:39;93113.25;;;5.17;100.00
11345;BME280;5727;42.600;23.028;2023-02-04T11:25:30;93116.78;;;5.04;100.00
11345;BME280;5727;42.600;23.028;2023-02-04T11:27:58;93110.34;;;5.02;100.00
11345;BME280;5727;42.600;23.028;2023-02-04T11:30:31;93114.47;;;5.11;100.00
11345;BME280;5727;42.600;23.028;2023-02-04T11:33:01;93109.13;;;5.25;100.00
11345;BME280;5727;42.600;23.028;2023-02-04T11:35:28;93113.72;;;5.36;100.00
11345;BME280;5727;42.600;23.028;2023-02-04T11:37:56;93106.34;;;5.55;100.00
11345;BME280;5727;42.600;23.028;2023-02-04T11:40:28;93097.16;;;5.75;100.00
11345;BME280;5727;42.600;23.028;2023-02-04T11:42:58;93102.97;;;5.72;100.00
11345;BME280;5727;42.600;23.028;2023-02-04T11:45:28;93101.88;;;5.90;100.00
11345;BME280;5727;42.600;23.028;2023-02-04T11:47:57;93095.41;;;6.05;100.00
11345;BME280;5727;42.600;23.028;2023-02-04T11:50:26;93090.63;;;6.15;100.00
11345;BME280;5727;42.600;23.028;2023-02-04T11:52:55;93078.84;;;6.18;100.00
11345;BME280;5727;42.600;23.028;2023-02-04T11:55:22;93078.38;;;6.16;100.00
11345;BME280;5727;42.600;23.028;2023-02-04T11:57:51;93090.06;;;6.01;100.00
11345;BME280;5727;42.600;23.028;2023-02-04T12:00:21;93093.16;;;5.86;100.00
11345;BME280;5727;42.600;23.028;2023-02-04T12:02:49;93093.38;;;5.47;100.00
11345;BME280;5727;42.600;23.028;2023-02-04T12:05:19;93095.53;;;5.36;100.00
11345;BME280;5727;42.600;23.028;2023-02-04T12:07:46;93096.44;;;4.98;100.00
11345;BME280;5727;42.600;23.028;2023-02-04T12:10:22;93101.56;;;4.46;100.00
11345;BME280;5727;42.600;23.028;2023-02-04T12:12:50;93094.78;;;4.20;100.00
11345;BME280;5727;42.600;23.028;2023-02-04T12:15:22;93098.47;;;4.27;100.00
11345;BME280;5727;42.600;23.028;2023-02-04T12:18:00;93092.81;;;4.17;100.00
11345;BME280;5727;42.600;23.028;2023-02-04T12:20:27;93087.78;;;4.29;100.00
11345;BME280;5727;42.600;23.028;2023-02-04T12:22:54;93095.34;;;4.47;100.00
11345;BME280;5727;42.600;23.028;2023-02-04T12:25:20;93091.59;;;4.23;100.00
11345;BME280;5727;42.600;23.028;2023-02-04T12:27:47;93097.81;;;4.13;100.00
11345;BME280;5727;42.600;23.028;2023-02-04T12:30:14;93102.91;;;3.88;100.00
11345;BME280;5727;42.600;23.028;2023-02-04T12:32:44;93097.56;;;3.84;100.00
11345;BME280;5727;42.600;23.028;2023-02-04T12:35:10;93100.16;;;3.93;100.00
11345;BME280;5727;42.600;23.028;2023-02-04T12:37:37;93101.41;;;3.64;100.00
11345;BME280;5727;42.600;23.028;2023-02-04T12:40:05;93101.78;;;3.49;100.00
11345;BME280;5727;42.600;23.028;2023-02-04T12:42:32;93108.84;;;3.35;100.00
11345;BME280;5727;42.600;23.028;2023-02-04T12:44:58;93118.19;;;3.23;100.00
11345;BME280;5727;42.600;23.028;2023-02-04T12:47:25;93095.63;;;3.15;100.00
11345;BME280;5727;42.600;23.028;2023-02-04T12:49:53;93092.59;;;3.21;100.00
11345;BME280;5727;42.600;23.028;2023-02-04T12:52:20;93099.47;;;3.04;100.00
11345;BME280;5727;42.600;23.028;2023-02-04T12:54:47;93096.84;;;2.95;100.00
11345;BME280;5727;42.600;23.028;2023-02-04T12:57:16;93099.13;;;2.97;100.00
11345;BME280;5727;42.600;23.028;2023-02-04T12:59:44;93102.66;;;3.01;100.00
11345;BME280;5727;42.600;23.028;2023-02-04T13:02:11;93110.03;;;3.07;100.00
11345;BME280;5727;42.600;23.028;2023-02-04T13:04:38;93094.16;;;3.22;100.00